createdAt,value
2017-10-12T00:02:14.667Z,3.30
2017-10-12T00:04:42.334Z,6.60
2017-10-12T00:07:10.773Z,4.13
2017-10-12T00:09:38.377Z,7.57
2017-10-12T00:12:06.125Z,2.87
2017-10-12T00:14:33.712Z,3.07
2017-10-12T00:17:02.217Z,3.33
2017-10-12T00:19:29.745Z,4.40
2017-10-12T00:21:57.306Z,5.27
2017-10-12T00:24:25.613Z,2.40
2017-10-12T00:26:53.882Z,2.77
2017-10-12T00:29:21.512Z,3.43
2017-10-12T00:31:49.665Z,3.07
2017-10-12T00:34:17.612Z,6.73
2017-10-12T00:36:56.858Z,2.57
2017-10-12T00:42:14.088Z,5.00
2017-10-12T00:44:41.900Z,4.03
2017-10-12T00:47:09.498Z,3.07
2017-10-12T00:49:37.075Z,3.20
2017-10-12T00:52:05.431Z,6.70
2017-10-12T00:54:33.306Z,9.23
2017-10-12T00:57:00.865Z,6.40
2017-10-12T00:59:28.463Z,2.80
2017-10-12T01:01:56.113Z,6.50
2017-10-12T01:04:24.454Z,3.27
2017-10-12T01:06:54.884Z,4.77
2017-10-12T01:09:23.667Z,6.53
2017-10-12T01:11:52.370Z,4.93
2017-10-12T01:14:20.679Z,5.93
2017-10-12T01:16:48.410Z,4.90
2017-10-12T01:19:15.930Z,10.20
2017-10-12T01:21:43.449Z,5.50
2017-10-12T01:24:10.988Z,5.77
2017-10-12T01:26:39.294Z,6.40
2017-10-12T01:29:06.830Z,4.13
2017-10-12T01:31:34.337Z,3.10
2017-10-12T01:34:01.875Z,3.10
2017-10-12T01:36:29.392Z,4.23
2017-10-12T01:38:56.952Z,5.00
2017-10-12T01:41:24.454Z,6.20
2017-10-12T01:43:51.952Z,6.37
2017-10-12T01:46:19.496Z,2.63
2017-10-12T01:48:55.740Z,3.40
2017-10-12T01:51:23.289Z,3.53
2017-10-12T01:53:50.800Z,2.57
2017-10-12T01:56:18.333Z,2.60
2017-10-12T01:58:46.633Z,3.20
2017-10-12T02:01:14.967Z,5.93
2017-10-12T02:03:42.472Z,3.30
2017-10-12T02:06:10.003Z,3.80
2017-10-12T02:08:37.514Z,3.73
2017-10-12T02:11:05.052Z,3.33
2017-10-12T02:13:32.554Z,3.80
2017-10-12T02:16:00.090Z,4.67
2017-10-12T02:18:27.586Z,3.83
2017-10-12T02:20:55.163Z,3.30
2017-10-12T02:23:22.661Z,3.47
2017-10-12T02:25:52.654Z,3.00
2017-10-12T02:28:20.189Z,2.23
2017-10-12T02:30:47.690Z,5.70
2017-10-12T02:33:15.215Z,2.37
2017-10-12T02:35:43.480Z,2.67
2017-10-12T02:38:11.017Z,7.67
2017-10-12T02:40:38.552Z,8.20
2017-10-12T02:43:06.846Z,2.70
2017-10-12T02:45:34.339Z,5.30
2017-10-12T02:48:01.887Z,5.13
2017-10-12T02:50:29.395Z,4.20
2017-10-12T02:52:56.978Z,2.37
2017-10-12T02:55:24.477Z,5.43
2017-10-12T02:57:52.116Z,3.73
2017-10-12T03:00:19.618Z,2.70
2017-10-12T03:02:47.174Z,3.10
2017-10-12T03:05:14.709Z,4.77
2017-10-12T03:07:42.207Z,4.27
2017-10-12T03:10:09.741Z,2.67
2017-10-12T03:12:37.242Z,3.90
2017-10-12T03:15:04.966Z,6.07
2017-10-12T03:17:33.227Z,5.87
2017-10-12T03:20:00.761Z,3.40
2017-10-12T03:22:28.534Z,3.13
2017-10-12T03:24:56.062Z,3.80
2017-10-12T03:27:23.557Z,10.90
2017-10-12T03:29:51.972Z,2.40
2017-10-12T03:32:19.525Z,3.73
2017-10-12T03:34:47.833Z,2.70
2017-10-12T03:37:15.598Z,5.13
2017-10-12T03:39:43.093Z,3.97
2017-10-12T03:42:10.617Z,8.10
2017-10-12T03:44:38.886Z,2.60
2017-10-12T03:47:06.418Z,3.60
2017-10-12T03:49:33.925Z,3.47
2017-10-12T03:52:01.466Z,5.00
2017-10-12T03:54:28.972Z,3.63
2017-10-12T03:56:56.590Z,8.37
2017-10-12T03:59:24.089Z,3.40
2017-10-12T04:01:51.618Z,4.40
2017-10-12T04:04:19.111Z,7.07
2017-10-12T04:06:46.663Z,3.03
2017-10-12T04:09:14.937Z,4.60
2017-10-12T04:11:42.429Z,3.90
2017-10-12T04:14:10.726Z,3.23
2017-10-12T04:16:38.226Z,6.70
2017-10-12T04:19:05.781Z,3.13
2017-10-12T04:21:33.277Z,8.87
2017-10-12T04:24:00.907Z,3.80
2017-10-12T04:26:28.401Z,3.20
2017-10-12T04:28:55.936Z,3.70
2017-10-12T04:31:23.474Z,11.30
2017-10-12T04:33:51.067Z,5.93
2017-10-12T04:36:18.614Z,2.20
2017-10-12T04:38:46.121Z,3.83
2017-10-12T04:41:13.666Z,3.17
2017-10-12T04:43:41.179Z,5.00
2017-10-12T04:46:08.734Z,5.00
2017-10-12T04:48:37.018Z,3.20
2017-10-12T04:51:04.558Z,3.93
2017-10-12T04:53:32.062Z,4.23
2017-10-12T04:55:59.599Z,2.77
2017-10-12T04:58:27.102Z,4.27
2017-10-12T05:00:55.517Z,3.03
2017-10-12T05:03:23.787Z,3.53
2017-10-12T05:05:51.298Z,7.20
2017-10-12T05:08:18.853Z,5.83
2017-10-12T05:10:47.115Z,4.40
2017-10-12T05:13:14.650Z,2.37
2017-10-12T05:15:42.510Z,6.83
2017-10-12T05:18:10.076Z,6.10
2017-10-12T05:20:37.593Z,4.70
2017-10-12T05:23:05.135Z,7.33
2017-10-12T05:25:32.648Z,2.47
2017-10-12T05:28:00.490Z,7.53
2017-10-12T05:30:27.980Z,3.50
2017-10-12T05:32:55.478Z,6.20
2017-10-12T05:35:23.017Z,6.50
2017-10-12T05:37:51.089Z,5.40
2017-10-12T05:40:18.646Z,6.30
2017-10-12T05:42:46.152Z,6.33
2017-10-12T05:45:13.681Z,8.90
2017-10-12T05:47:41.168Z,4.63
2017-10-12T05:50:08.693Z,6.00
2017-10-12T05:52:36.216Z,6.60
2017-10-12T05:55:03.763Z,6.20
2017-10-12T05:57:31.610Z,6.40
2017-10-12T05:59:59.108Z,11.47
2017-10-12T06:02:26.647Z,4.23
2017-10-12T06:04:54.142Z,3.73
2017-10-12T06:07:22.437Z,7.93
2017-10-12T06:09:50.746Z,6.77
2017-10-12T06:12:18.286Z,6.43
2017-10-12T06:14:45.833Z,6.77
2017-10-12T06:17:13.435Z,7.37
2017-10-12T06:19:41.749Z,7.80
2017-10-12T06:22:09.345Z,9.73
2017-10-12T06:24:36.895Z,8.17
2017-10-12T06:27:04.441Z,4.10
2017-10-12T06:29:32.044Z,5.40
2017-10-12T06:31:59.614Z,10.50
2017-10-12T06:34:27.498Z,8.33
2017-10-12T06:36:55.493Z,6.73
2017-10-12T06:39:23.161Z,10.30
2017-10-12T06:41:50.705Z,5.60
2017-10-12T06:44:19.059Z,8.50
2017-10-12T06:46:46.627Z,5.80
2017-10-12T06:49:14.241Z,7.53
2017-10-12T06:51:41.810Z,11.30
2017-10-12T06:54:09.381Z,5.07
2017-10-12T06:56:37.742Z,11.20
2017-10-12T06:59:05.306Z,6.03
2017-10-12T07:01:32.959Z,5.77
2017-10-12T07:04:00.515Z,9.40
2017-10-12T07:06:28.108Z,8.53
2017-10-12T07:08:55.658Z,7.27
2017-10-12T07:11:23.240Z,8.97
2017-10-12T07:13:50.920Z,3.03
2017-10-12T07:16:18.599Z,6.60
2017-10-12T07:18:46.148Z,10.93
2017-10-12T07:21:13.696Z,9.23
2017-10-12T07:23:41.552Z,10.60
2017-10-12T07:26:09.139Z,11.07
2017-10-12T07:28:36.732Z,6.70
2017-10-12T07:31:05.050Z,8.97
2017-10-12T07:33:33.988Z,9.77
2017-10-12T07:36:01.659Z,10.53
2017-10-12T07:38:29.281Z,5.10
2017-10-12T07:40:57.610Z,8.17
2017-10-12T07:43:25.161Z,5.73
2017-10-12T07:45:52.670Z,10.60
2017-10-12T07:48:20.225Z,13.30
2017-10-12T07:50:47.794Z,12.90
2017-10-12T07:53:15.295Z,7.67
2017-10-12T07:55:43.400Z,11.57
2017-10-12T07:58:10.964Z,10.93
2017-10-12T08:00:38.550Z,9.90
2017-10-12T08:03:06.055Z,14.00
2017-10-12T08:05:33.593Z,7.40
2017-10-12T08:08:01.108Z,10.50
2017-10-12T08:10:28.641Z,8.30
2017-10-12T08:12:57.005Z,3.63
2017-10-12T08:15:24.661Z,9.53
2017-10-12T08:17:53.141Z,8.33
2017-10-12T08:20:20.642Z,8.67
2017-10-12T08:22:48.177Z,14.87
2017-10-12T08:25:15.752Z,10.50
2017-10-12T08:27:43.289Z,9.43
2017-10-12T08:30:10.795Z,10.37
2017-10-12T08:32:38.325Z,6.77
2017-10-12T08:35:05.821Z,8.10
2017-10-12T08:37:34.132Z,10.67
2017-10-12T08:40:01.632Z,8.83
2017-10-12T08:42:29.174Z,12.73
2017-10-12T08:44:56.679Z,9.50
2017-10-12T08:47:24.231Z,13.07
2017-10-12T08:49:51.809Z,18.73
2017-10-12T08:52:19.357Z,6.73
2017-10-12T08:54:46.866Z,5.23
2017-10-12T08:57:14.434Z,10.60
2017-10-12T08:59:42.739Z,11.10
2017-10-12T09:02:10.266Z,10.70
2017-10-12T09:04:37.806Z,9.40
2017-10-12T09:07:06.066Z,9.63
2017-10-12T09:09:33.635Z,5.30
2017-10-12T09:12:01.129Z,7.93
2017-10-12T09:14:28.659Z,8.70
2017-10-12T09:16:56.162Z,8.27
2017-10-12T09:19:23.693Z,9.90
2017-10-12T09:21:51.185Z,9.60
2017-10-12T09:24:18.739Z,9.50
2017-10-12T09:26:46.241Z,8.43
2017-10-12T09:29:13.736Z,6.63
2017-10-12T09:31:41.273Z,7.60
2017-10-12T09:34:08.779Z,9.70
2017-10-12T09:36:37.134Z,9.00
2017-10-12T09:39:04.622Z,9.07
2017-10-12T09:41:32.535Z,8.90
2017-10-12T09:44:00.158Z,5.07
2017-10-12T09:46:27.699Z,7.07
2017-10-12T09:48:55.194Z,8.73
2017-10-12T09:51:22.772Z,5.47
2017-10-12T09:53:50.269Z,7.53
2017-10-12T09:56:17.820Z,7.47
2017-10-12T09:58:45.328Z,7.00
2017-10-12T10:01:12.822Z,11.60
2017-10-12T10:03:40.386Z,4.57
2017-10-12T10:06:07.881Z,6.33
2017-10-12T10:08:35.627Z,3.73
2017-10-12T10:11:03.900Z,4.97
2017-10-12T10:13:31.427Z,7.60
2017-10-12T10:15:59.001Z,8.70
2017-10-12T10:18:26.546Z,11.23
2017-10-12T10:20:54.060Z,10.20
2017-10-12T10:23:21.602Z,10.03
2017-10-12T10:25:49.110Z,9.63
2017-10-12T10:28:16.669Z,6.23
2017-10-12T10:30:44.171Z,5.07
2017-10-12T10:33:11.672Z,6.87
2017-10-12T10:35:40.021Z,9.23
2017-10-12T10:38:07.527Z,7.30
2017-10-12T10:40:35.829Z,10.23
2017-10-12T10:43:03.377Z,8.97
2017-10-12T10:45:31.395Z,7.13
2017-10-12T10:47:58.898Z,7.43
2017-10-12T10:50:26.429Z,8.10
2017-10-12T10:52:53.923Z,8.20
2017-10-12T10:55:21.492Z,8.00
2017-10-12T10:57:49.005Z,11.80
2017-10-12T11:00:16.557Z,10.03
2017-10-12T11:02:44.245Z,7.63
2017-10-12T11:05:11.809Z,5.40
2017-10-12T11:07:39.446Z,7.00
2017-10-12T11:10:07.050Z,8.73
2017-10-12T11:12:34.656Z,7.70
2017-10-12T11:15:02.250Z,11.63
2017-10-12T11:17:29.857Z,7.40
2017-10-12T11:19:57.368Z,10.50
2017-10-12T11:22:24.895Z,9.73
2017-10-12T11:24:52.496Z,10.97
2017-10-12T11:27:19.994Z,14.77
2017-10-12T11:29:48.385Z,10.50
2017-10-12T11:32:15.887Z,9.60
2017-10-12T11:34:43.449Z,12.27
2017-10-12T11:37:10.970Z,13.53
2017-10-12T11:39:38.725Z,11.50
2017-10-12T11:42:06.386Z,12.20
2017-10-12T11:44:34.096Z,9.63
2017-10-12T11:47:01.626Z,8.63
2017-10-12T11:49:29.122Z,12.20
2017-10-12T11:51:56.650Z,10.37
2017-10-12T11:54:24.921Z,7.37
2017-10-12T11:56:52.450Z,9.70
2017-10-12T11:59:19.943Z,8.33
2017-10-12T12:01:47.490Z,11.87
2017-10-12T12:04:14.994Z,12.57
2017-10-12T12:06:42.494Z,6.03
2017-10-12T12:09:10.790Z,11.93
2017-10-12T12:11:38.530Z,12.47
2017-10-12T12:14:06.057Z,12.07
2017-10-12T12:16:33.571Z,6.30
2017-10-12T12:19:01.112Z,4.80
2017-10-12T12:21:28.623Z,12.00
2017-10-12T12:23:56.189Z,13.17
2017-10-12T12:26:23.677Z,7.90
2017-10-12T12:28:51.185Z,11.30
2017-10-12T12:31:18.715Z,8.00
2017-10-12T12:33:46.226Z,8.50
2017-10-12T12:36:13.754Z,8.70
2017-10-12T12:38:41.279Z,4.17
2017-10-12T12:41:08.820Z,13.70
2017-10-12T12:43:37.121Z,10.20
2017-10-12T12:46:05.430Z,5.40
2017-10-12T12:48:32.929Z,7.00
2017-10-12T12:51:00.434Z,8.80
2017-10-12T12:53:27.958Z,11.17
2017-10-12T12:55:55.469Z,5.70
2017-10-12T12:58:23.002Z,9.27
2017-10-12T13:00:50.501Z,11.67
2017-10-12T13:03:18.042Z,13.77
2017-10-12T13:05:45.547Z,8.43
2017-10-12T13:08:13.081Z,5.57
2017-10-12T13:10:40.573Z,10.00
2017-10-12T13:13:08.302Z,11.77
2017-10-12T13:15:36.562Z,9.47
2017-10-12T13:18:04.107Z,5.20
2017-10-12T13:20:31.654Z,6.90
2017-10-12T13:22:59.158Z,6.20
2017-10-12T13:25:27.460Z,4.87
2017-10-12T13:27:54.967Z,7.40
2017-10-12T13:30:23.277Z,6.33
2017-10-12T13:32:50.777Z,7.97
2017-10-12T13:35:18.270Z,5.30
2017-10-12T13:37:45.990Z,12.60
2017-10-12T13:40:23.406Z,6.53
2017-10-12T13:42:51.193Z,5.53
2017-10-12T13:45:18.788Z,5.33
2017-10-12T13:47:46.325Z,10.20
2017-10-12T13:50:13.835Z,11.10
2017-10-12T13:52:41.373Z,7.00
2017-10-12T13:55:08.886Z,3.17
2017-10-12T13:57:36.427Z,7.97
2017-10-12T14:00:03.942Z,10.97
2017-10-12T14:02:31.498Z,41.70
2017-10-12T14:04:59.007Z,17.23
2017-10-12T14:07:26.552Z,12.30
2017-10-12T14:09:54.045Z,5.90
2017-10-12T14:12:22.309Z,9.67
2017-10-12T14:14:49.866Z,8.33
2017-10-12T14:17:17.362Z,14.30
2017-10-12T14:19:44.898Z,11.70
2017-10-12T14:22:12.482Z,5.90
2017-10-12T14:24:40.060Z,11.00
2017-10-12T14:27:07.562Z,7.77
2017-10-12T14:29:35.870Z,4.97
2017-10-12T14:32:03.373Z,15.63
2017-10-12T14:34:30.910Z,4.67
2017-10-12T14:36:58.398Z,7.97
2017-10-12T14:39:25.904Z,6.40
2017-10-12T14:41:53.443Z,7.83
2017-10-12T14:44:21.707Z,5.03
2017-10-12T14:46:49.338Z,12.53
2017-10-12T14:49:16.846Z,8.50
2017-10-12T14:51:45.180Z,11.47
2017-10-12T14:54:12.673Z,6.83
2017-10-12T14:56:40.216Z,6.57
2017-10-12T14:59:07.726Z,16.80
2017-10-12T15:01:35.285Z,10.67
2017-10-12T15:04:02.792Z,6.63
2017-10-12T15:06:31.081Z,5.83
2017-10-12T15:08:59.364Z,12.07
2017-10-12T15:11:27.684Z,7.20
2017-10-12T15:13:55.178Z,6.60
2017-10-12T15:16:22.681Z,10.53
2017-10-12T15:18:51.486Z,10.90
2017-10-12T15:21:19.000Z,6.20
2017-10-12T15:23:46.535Z,9.10
2017-10-12T15:26:14.077Z,6.27
2017-10-12T15:28:41.644Z,10.07
2017-10-12T15:31:09.141Z,9.70
2017-10-12T15:33:36.678Z,6.17
2017-10-12T15:36:04.205Z,10.20
2017-10-12T15:38:32.639Z,14.47
2017-10-12T15:41:00.150Z,13.00
2017-10-12T15:43:27.641Z,9.73
2017-10-12T15:45:55.942Z,15.03
2017-10-12T15:48:24.202Z,8.70
2017-10-12T15:50:51.750Z,15.27
2017-10-12T15:53:19.264Z,10.83
2017-10-12T15:55:47.565Z,7.80
2017-10-12T15:58:15.841Z,10.00
2017-10-12T16:00:43.373Z,8.80
2017-10-12T16:03:11.165Z,9.33
2017-10-12T16:05:38.732Z,8.90
2017-10-12T16:08:06.234Z,10.13
2017-10-12T16:10:34.493Z,9.10
2017-10-12T16:13:02.812Z,10.03
2017-10-12T16:15:30.447Z,10.90
2017-10-12T16:17:58.287Z,8.57
2017-10-12T16:20:26.554Z,9.50
2017-10-12T16:25:22.410Z,6.93
2017-10-12T16:27:49.954Z,10.60
2017-10-12T16:30:17.466Z,12.23
2017-10-12T16:35:12.522Z,7.77
2017-10-12T16:37:40.085Z,15.20
2017-10-12T16:40:08.384Z,20.33
2017-10-12T16:42:35.883Z,16.83
2017-10-12T16:45:03.422Z,11.83
2017-10-12T16:47:31.694Z,12.13
2017-10-12T16:49:59.241Z,12.97
2017-10-12T16:52:26.751Z,11.07
2017-10-12T16:54:55.076Z,10.97
2017-10-12T16:57:22.577Z,10.03
2017-10-12T16:59:50.090Z,10.33
2017-10-12T17:02:18.398Z,16.87
2017-10-12T17:04:45.897Z,6.90
2017-10-12T17:07:13.474Z,14.87
2017-10-12T17:09:40.974Z,9.40
2017-10-12T17:12:08.508Z,7.67
2017-10-12T17:14:36.012Z,12.90
2017-10-12T17:17:03.560Z,9.60
2017-10-12T17:19:31.058Z,17.60
2017-10-12T17:21:58.570Z,19.27
2017-10-12T17:24:26.146Z,14.97
2017-10-12T17:26:53.638Z,8.60
2017-10-12T17:29:21.178Z,26.40
2017-10-12T17:31:48.686Z,13.83
2017-10-12T17:34:16.230Z,18.77
2017-10-12T17:36:49.691Z,13.33
2017-10-12T17:39:17.939Z,26.80
2017-10-12T17:41:45.554Z,19.30
2017-10-12T17:44:13.180Z,16.13
2017-10-12T17:46:40.700Z,22.67
2017-10-12T17:49:08.350Z,13.03
2017-10-12T17:51:35.908Z,24.40
2017-10-12T17:56:31.162Z,20.07
2017-10-12T17:58:58.767Z,17.50
2017-10-12T18:01:26.279Z,18.83
2017-10-12T18:03:53.867Z,14.90
2017-10-12T18:06:21.424Z,17.43
2017-10-12T18:08:49.780Z,16.73
2017-10-12T18:11:17.331Z,15.87
2017-10-12T18:13:44.829Z,20.73
2017-10-12T18:16:12.422Z,15.13
2017-10-12T18:18:39.925Z,14.90
2017-10-12T18:21:07.475Z,15.43
2017-10-12T18:23:35.016Z,21.83
2017-10-12T18:26:02.557Z,18.33
2017-10-12T18:28:30.075Z,17.10
2017-10-12T18:30:58.755Z,17.30
2017-10-12T18:33:26.258Z,27.07
2017-10-12T18:35:53.756Z,24.60
2017-10-12T18:38:21.315Z,11.50
2017-10-12T18:40:50.070Z,16.57
2017-10-12T18:43:17.674Z,16.10
2017-10-12T18:45:45.212Z,12.00
2017-10-12T18:48:19.613Z,12.63
2017-10-12T18:50:47.271Z,28.67
2017-10-12T18:53:14.897Z,27.83
2017-10-12T18:55:42.559Z,26.60
2017-10-12T18:58:10.153Z,15.90
2017-10-12T19:00:37.744Z,25.47
2017-10-12T19:03:05.291Z,19.23
2017-10-12T19:05:32.792Z,19.57
2017-10-12T19:08:00.458Z,19.10
2017-10-12T19:10:27.974Z,17.30
2017-10-12T19:12:57.435Z,24.33
2017-10-12T19:15:25.813Z,16.43
2017-10-12T19:17:53.328Z,34.37
2017-10-12T19:20:20.912Z,12.33
2017-10-12T19:22:48.443Z,17.77
2017-10-12T19:25:16.020Z,15.73
2017-10-12T19:27:43.599Z,25.77
2017-10-12T19:30:11.914Z,16.73
2017-10-12T19:32:39.412Z,21.90
2017-10-12T19:35:06.981Z,18.63
2017-10-12T19:37:34.571Z,26.47
2017-10-12T19:40:02.075Z,26.63
2017-10-12T19:42:30.373Z,17.40
2017-10-12T19:44:57.894Z,20.60
2017-10-12T19:47:25.444Z,23.83
2017-10-12T19:49:52.945Z,23.07
2017-10-12T19:52:20.496Z,24.60
2017-10-12T19:54:48.011Z,27.00
2017-10-12T19:57:15.617Z,30.37
2017-10-12T19:59:43.130Z,27.97
2017-10-12T20:02:10.636Z,18.73
2017-10-12T20:04:38.971Z,18.97
2017-10-12T20:07:06.538Z,22.10
2017-10-12T20:09:34.094Z,26.47
2017-10-12T20:12:01.614Z,28.93
2017-10-12T20:14:29.170Z,14.20
2017-10-12T20:16:56.670Z,28.00
2017-10-12T20:19:24.221Z,22.10
2017-10-12T20:21:51.755Z,23.07
2017-10-12T20:26:47.660Z,14.37
2017-10-12T20:31:43.033Z,27.60
2017-10-12T20:34:11.912Z,18.13
2017-10-12T20:36:39.572Z,13.13
2017-10-12T20:41:34.666Z,28.87
2017-10-12T20:44:02.960Z,22.40
2017-10-12T20:46:30.556Z,24.57
2017-10-12T20:48:58.057Z,25.20
2017-10-12T20:51:25.562Z,30.73
2017-10-12T20:53:53.110Z,11.40
2017-10-12T20:56:20.620Z,27.90
2017-10-12T20:58:48.942Z,18.33
2017-10-12T21:01:16.453Z,24.30
2017-10-12T21:03:43.993Z,19.03
2017-10-12T21:06:11.494Z,17.70
2017-10-12T21:08:39.032Z,21.33
2017-10-12T21:11:06.525Z,17.70
2017-10-12T21:13:34.121Z,20.80
2017-10-12T21:16:01.617Z,26.90
2017-10-12T21:18:29.878Z,21.03
2017-10-12T21:20:57.429Z,20.90
2017-10-12T21:23:24.965Z,18.00
2017-10-12T21:25:52.495Z,29.57
2017-10-12T21:28:20.021Z,19.63
2017-10-12T21:30:47.611Z,15.13
2017-10-12T21:33:15.189Z,21.50
2017-10-12T21:35:42.837Z,17.23
2017-10-12T21:38:10.452Z,21.60
2017-10-12T21:40:38.076Z,19.80
2017-10-12T21:43:06.390Z,16.27
2017-10-12T21:45:34.071Z,21.93
2017-10-12T21:48:02.359Z,19.83
2017-10-12T21:50:29.970Z,8.10
2017-10-12T21:52:57.564Z,10.33
2017-10-12T21:55:25.134Z,20.37
2017-10-12T21:57:52.702Z,18.00
2017-10-12T22:00:20.332Z,16.13
2017-10-12T22:02:47.924Z,16.90
2017-10-12T22:05:15.536Z,11.33
2017-10-12T22:07:43.265Z,16.33
2017-10-12T22:10:11.295Z,29.27
2017-10-12T22:12:38.895Z,15.80
2017-10-12T22:15:06.756Z,17.70
2017-10-12T22:17:34.387Z,14.23
2017-10-12T22:20:02.897Z,15.23
2017-10-12T22:22:31.378Z,19.63
2017-10-12T22:24:59.023Z,18.70
2017-10-12T22:27:27.761Z,19.80
2017-10-12T22:29:55.404Z,11.53
2017-10-12T22:32:23.975Z,33.17
2017-10-12T22:34:52.204Z,14.43
2017-10-12T22:37:19.939Z,22.67
2017-10-12T22:39:47.675Z,14.90
2017-10-12T22:42:15.335Z,13.97
2017-10-12T22:44:42.981Z,21.33
2017-10-12T22:47:10.590Z,13.40
2017-10-12T22:49:38.294Z,14.77
2017-10-12T22:52:06.557Z,20.30
2017-10-12T22:54:34.173Z,23.03
2017-10-12T22:57:01.734Z,20.47
2017-10-12T22:59:29.273Z,15.53
2017-10-12T23:01:56.817Z,15.37
2017-10-12T23:04:24.353Z,13.03
2017-10-12T23:06:51.867Z,16.87
2017-10-12T23:09:19.557Z,18.30
2017-10-12T23:11:47.077Z,13.10
2017-10-12T23:14:14.641Z,10.83
2017-10-12T23:16:42.942Z,13.67
2017-10-12T23:19:10.445Z,18.57
2017-10-12T23:21:38.059Z,13.90
2017-10-12T23:24:06.338Z,15.33
2017-10-12T23:26:33.881Z,14.00
2017-10-12T23:29:01.397Z,20.73
2017-10-12T23:31:29.722Z,8.23
2017-10-12T23:33:57.230Z,20.30
2017-10-12T23:36:24.741Z,12.53
2017-10-12T23:38:52.274Z,14.30
2017-10-12T23:41:19.772Z,12.30
2017-10-12T23:43:47.330Z,13.10
2017-10-12T23:46:14.831Z,9.73
2017-10-12T23:48:42.369Z,15.67
2017-10-12T23:51:09.872Z,13.57
2017-10-12T23:53:38.170Z,11.30
2017-10-12T23:56:05.674Z,11.60
2017-10-12T23:58:33.205Z,20.23
